createdAt,value
2022-10-25T00:01:46.771Z,2.70
2022-10-25T00:04:14.565Z,2.60
2022-10-25T00:06:41.283Z,2.65
2022-10-25T00:09:08.210Z,2.57
2022-10-25T00:11:35.239Z,2.40
2022-10-25T00:14:05.355Z,2.60
2022-10-25T00:16:34.842Z,2.55
2022-10-25T00:19:01.339Z,2.70
2022-10-25T00:21:27.823Z,2.60
2022-10-25T00:23:54.358Z,2.70
2022-10-25T00:26:21.421Z,2.50
2022-10-25T00:28:48.489Z,2.63
2022-10-25T00:31:16.585Z,2.58
2022-10-25T00:33:44.158Z,2.83
2022-10-25T00:36:17.093Z,3.03
2022-10-25T00:38:44.701Z,2.90
2022-10-25T00:41:12.664Z,2.83
2022-10-25T00:43:43.131Z,3.22
2022-10-25T00:46:25.558Z,3.13
2022-10-25T00:48:56.002Z,3.03
2022-10-25T00:51:28.561Z,3.00
2022-10-25T00:53:55.831Z,3.00
2022-10-25T00:56:28.207Z,2.80
2022-10-25T00:59:00.424Z,2.57
2022-10-25T01:01:27.402Z,2.78
2022-10-25T01:03:56.586Z,3.03
2022-10-25T01:06:30.149Z,2.60
2022-10-25T01:08:57.799Z,2.92
2022-10-25T01:11:24.237Z,3.00
2022-10-25T01:13:51.316Z,2.80
2022-10-25T01:16:44.042Z,2.88
2022-10-25T01:19:42.192Z,3.22
2022-10-25T01:22:39.078Z,3.50
2022-10-25T01:25:19.512Z,2.77
2022-10-25T01:30:59.011Z,3.10
2022-10-25T01:33:44.160Z,3.20
2022-10-25T01:36:19.709Z,3.13
2022-10-25T01:38:49.276Z,3.10
2022-10-25T01:41:27.967Z,3.10
2022-10-25T01:44:11.691Z,3.05
2022-10-25T01:46:53.935Z,2.95
2022-10-25T01:49:49.766Z,3.53
2022-10-25T01:52:22.338Z,2.70
2022-10-25T01:54:50.120Z,3.00
2022-10-25T01:57:16.622Z,3.10
2022-10-25T01:59:52.055Z,3.78
2022-10-25T02:02:32.842Z,3.55
2022-10-25T02:05:23.971Z,4.00
2022-10-25T02:08:18.669Z,3.47
2022-10-25T02:10:56.710Z,3.50
2022-10-25T02:13:38.817Z,3.78
2022-10-25T02:16:12.099Z,3.53
2022-10-25T02:18:43.419Z,3.20
2022-10-25T02:21:12.109Z,3.40
2022-10-25T02:23:40.482Z,3.65
2022-10-25T02:26:09.811Z,3.50
2022-10-25T02:28:40.055Z,3.38
2022-10-25T02:31:10.119Z,3.60
2022-10-25T02:33:37.529Z,3.28
2022-10-25T02:36:28.731Z,2.90
2022-10-25T02:38:55.575Z,3.28
2022-10-25T02:41:22.925Z,2.65
2022-10-25T02:43:49.921Z,2.90
2022-10-25T02:46:19.702Z,3.05
2022-10-25T02:48:46.661Z,3.03
2022-10-25T02:51:14.221Z,3.22
2022-10-25T02:53:41.626Z,3.10
2022-10-25T02:56:09.898Z,2.90
2022-10-25T02:58:38.419Z,3.10
2022-10-25T03:01:06.564Z,2.70
2022-10-25T03:03:33.822Z,2.88
2022-10-25T03:06:00.922Z,2.30
2022-10-25T03:11:00.021Z,2.50
2022-10-25T03:13:26.633Z,2.95
2022-10-25T03:15:53.249Z,2.60
2022-10-25T03:18:19.865Z,2.55
2022-10-25T03:20:46.386Z,2.60
2022-10-25T03:23:13.089Z,2.45
2022-10-25T03:25:40.109Z,2.40
2022-10-25T03:28:08.303Z,2.05
2022-10-25T03:30:35.254Z,2.30
2022-10-25T03:33:01.951Z,2.10
2022-10-25T03:35:28.560Z,2.33
2022-10-25T03:37:55.123Z,3.13
2022-10-25T03:40:22.769Z,2.40
2022-10-25T03:42:49.291Z,2.50
2022-10-25T03:45:15.965Z,2.23
2022-10-25T03:47:42.453Z,2.60
2022-10-25T03:50:09.478Z,2.50
2022-10-25T03:52:36.215Z,1.95
2022-10-25T03:55:03.566Z,2.35
2022-10-25T03:57:30.498Z,2.33
2022-10-25T03:59:57.823Z,2.15
2022-10-25T04:02:24.255Z,2.15
2022-10-25T04:04:50.838Z,1.60
2022-10-25T04:07:17.853Z,1.70
2022-10-25T04:09:45.550Z,1.80
2022-10-25T04:12:13.041Z,1.45
2022-10-25T04:14:39.574Z,1.40
2022-10-25T04:17:06.110Z,1.60
2022-10-25T04:19:32.747Z,1.52
2022-10-25T04:22:02.113Z,1.67
2022-10-25T04:24:29.470Z,1.45
2022-10-25T04:26:57.114Z,1.50
2022-10-25T04:29:24.021Z,1.45
2022-10-25T04:31:50.821Z,1.50
2022-10-25T04:34:17.535Z,1.50
2022-10-25T04:36:44.182Z,1.60
2022-10-25T04:39:10.981Z,1.55
2022-10-25T04:41:37.482Z,1.10
2022-10-25T04:44:04.241Z,1.50
2022-10-25T04:46:30.793Z,1.50
2022-10-25T04:48:57.384Z,1.45
2022-10-25T04:51:23.987Z,1.50
2022-10-25T04:53:53.403Z,1.45
2022-10-25T04:56:19.977Z,1.42
2022-10-25T04:58:46.512Z,1.43
2022-10-25T05:01:16.166Z,1.30
2022-10-25T05:03:42.933Z,1.20
2022-10-25T05:06:14.937Z,0.90
2022-10-25T05:08:43.978Z,1.50
2022-10-25T05:11:11.439Z,0.93
2022-10-25T05:13:39.437Z,1.00
2022-10-25T05:16:06.938Z,1.20
2022-10-25T05:18:34.848Z,1.50
2022-10-25T05:21:07.011Z,1.30
2022-10-25T05:23:34.625Z,1.50
2022-10-25T05:26:10.475Z,1.13
2022-10-25T05:28:38.689Z,1.50
2022-10-25T05:31:26.293Z,1.13
2022-10-25T05:33:56.185Z,1.00
2022-10-25T05:36:23.538Z,1.10
2022-10-25T05:38:50.210Z,1.08
2022-10-25T05:41:17.994Z,1.23
2022-10-25T05:43:45.084Z,1.08
2022-10-25T05:46:14.842Z,1.20
2022-10-25T05:48:47.260Z,1.20
2022-10-25T05:51:36.335Z,1.08
2022-10-25T05:54:09.780Z,1.00
2022-10-25T05:56:36.697Z,1.23
2022-10-25T05:59:12.353Z,1.00
2022-10-25T06:01:45.410Z,0.93
2022-10-25T06:04:12.907Z,1.20
2022-10-25T06:06:40.762Z,2.47
2022-10-25T06:09:07.398Z,1.60
2022-10-25T06:11:34.060Z,1.10
2022-10-25T06:14:00.673Z,0.63
2022-10-25T06:16:27.585Z,0.90
2022-10-25T06:18:54.593Z,1.60
2022-10-25T06:21:23.921Z,0.70
2022-10-25T06:23:51.203Z,1.20
2022-10-25T06:26:21.030Z,1.13
2022-10-25T06:28:47.792Z,1.10
2022-10-25T06:31:16.417Z,0.90
2022-10-25T06:33:43.542Z,0.90
2022-10-25T06:36:14.911Z,0.90
2022-10-25T06:38:41.487Z,0.90
2022-10-25T06:41:15.522Z,0.60
2022-10-25T06:43:42.258Z,0.88
2022-10-25T06:46:17.004Z,0.77
2022-10-25T06:48:43.521Z,0.90
2022-10-25T06:51:10.568Z,0.70
2022-10-25T06:53:38.070Z,0.57
2022-10-25T06:56:10.527Z,0.90
2022-10-25T06:58:40.130Z,0.90
2022-10-25T07:01:10.225Z,0.80
2022-10-25T07:03:37.147Z,0.77
2022-10-25T07:06:12.542Z,0.80
2022-10-25T07:08:44.492Z,0.90
2022-10-25T07:11:19.668Z,1.00
2022-10-25T07:13:47.129Z,1.02
2022-10-25T07:16:17.250Z,0.90
2022-10-25T07:18:44.260Z,0.95
2022-10-25T07:21:13.436Z,1.10
2022-10-25T07:23:43.739Z,0.98
2022-10-25T07:26:18.854Z,1.20
2022-10-25T07:28:46.892Z,0.70
2022-10-25T07:31:25.843Z,0.90
2022-10-25T07:33:53.523Z,0.90
2022-10-25T07:36:20.629Z,0.70
2022-10-25T07:38:47.126Z,0.70
2022-10-25T07:41:13.936Z,0.97
2022-10-25T07:43:40.692Z,0.90
2022-10-25T07:46:07.865Z,1.00
2022-10-25T07:48:34.531Z,1.15
2022-10-25T07:51:12.162Z,1.38
2022-10-25T07:53:39.442Z,1.57
2022-10-25T07:56:07.517Z,1.50
2022-10-25T07:58:34.870Z,1.70
2022-10-25T08:01:06.150Z,1.73
2022-10-25T08:03:33.018Z,1.40
2022-10-25T08:06:00.038Z,1.37
2022-10-25T08:08:27.221Z,0.90
2022-10-25T08:10:54.108Z,1.17
2022-10-25T08:13:21.009Z,1.23
2022-10-25T08:15:55.137Z,1.30
2022-10-25T08:18:23.474Z,1.30
2022-10-25T08:21:01.648Z,1.23
2022-10-25T08:23:30.703Z,1.48
2022-10-25T08:25:57.312Z,1.70
2022-10-25T08:28:23.857Z,1.65
2022-10-25T08:30:50.306Z,2.10
2022-10-25T08:33:16.986Z,1.98
2022-10-25T08:35:43.660Z,2.20
2022-10-25T08:38:10.153Z,2.22
2022-10-25T08:41:01.550Z,2.22
2022-10-25T08:43:53.594Z,2.60
2022-10-25T08:46:34.914Z,2.80
2022-10-25T08:49:21.762Z,2.28
2022-10-25T08:51:50.741Z,2.97
2022-10-25T08:54:23.243Z,2.40
2022-10-25T08:57:18.002Z,2.70
2022-10-25T08:59:50.046Z,2.70
2022-10-25T09:02:22.101Z,3.65
2022-10-25T09:04:56.856Z,3.38
2022-10-25T09:07:44.717Z,2.88
2022-10-25T09:10:36.866Z,2.90
2022-10-25T09:13:17.991Z,4.55
2022-10-25T09:15:53.497Z,3.97
2022-10-25T09:18:33.900Z,4.07
2022-10-25T09:21:03.844Z,4.55
2022-10-25T09:23:33.015Z,4.37
2022-10-25T09:26:11.621Z,3.20
2022-10-25T09:28:51.872Z,2.88
2022-10-25T09:31:23.363Z,2.17
2022-10-25T09:33:53.194Z,3.95
2022-10-25T09:36:19.976Z,2.83
2022-10-25T09:38:55.782Z,2.90
2022-10-25T09:41:35.419Z,2.60
2022-10-25T09:44:06.918Z,2.63
2022-10-25T09:46:48.828Z,2.50
2022-10-25T09:49:28.806Z,3.43
2022-10-25T09:52:19.393Z,2.30
2022-10-25T09:55:12.085Z,3.20
2022-10-25T09:57:38.701Z,2.47
2022-10-25T10:00:05.855Z,2.17
2022-10-25T10:02:32.506Z,1.60
2022-10-25T10:04:59.247Z,1.52
2022-10-25T10:07:46.064Z,3.08
2022-10-25T10:10:16.327Z,2.90
2022-10-25T10:13:01.800Z,1.80
2022-10-25T10:15:28.271Z,1.90
2022-10-25T10:18:19.511Z,2.03
2022-10-25T10:21:11.857Z,2.30
2022-10-25T10:23:41.359Z,2.00
2022-10-25T10:26:23.016Z,2.00
2022-10-25T10:28:54.518Z,1.80
2022-10-25T10:31:21.233Z,2.13
2022-10-25T10:33:51.750Z,2.28
2022-10-25T10:36:28.321Z,2.47
2022-10-25T10:39:13.332Z,1.88
2022-10-25T10:42:15.347Z,2.17
2022-10-25T10:44:59.139Z,2.05
2022-10-25T10:47:28.174Z,2.10
2022-10-25T10:49:54.734Z,2.40
2022-10-25T10:52:31.642Z,2.13
2022-10-25T10:54:59.564Z,2.50
2022-10-25T10:57:34.961Z,2.08
2022-10-25T11:00:02.411Z,2.33
2022-10-25T11:02:38.042Z,2.67
2022-10-25T11:05:19.835Z,2.30
2022-10-25T11:07:53.413Z,2.40
2022-10-25T11:10:23.258Z,1.77
2022-10-25T11:13:08.578Z,2.22
2022-10-25T11:15:53.571Z,1.83
2022-10-25T11:18:33.185Z,3.00
2022-10-25T11:21:09.825Z,2.10
2022-10-25T11:24:07.248Z,1.60
2022-10-25T11:26:48.016Z,2.75
2022-10-25T11:29:43.917Z,1.70
2022-10-25T11:32:39.971Z,2.33
2022-10-25T11:35:33.718Z,1.60
2022-10-25T11:38:15.393Z,1.80
2022-10-25T11:40:54.919Z,2.00
2022-10-25T11:43:33.447Z,1.88
2022-10-25T11:46:07.490Z,1.70
2022-10-25T11:48:53.350Z,2.10
2022-10-25T11:51:29.028Z,2.25
2022-10-25T11:54:37.339Z,1.90
2022-10-25T11:57:39.191Z,2.10
2022-10-25T12:00:22.885Z,2.50
2022-10-25T12:03:01.581Z,1.93
2022-10-25T12:05:52.942Z,1.90
2022-10-25T12:08:51.198Z,2.17
2022-10-25T12:11:32.678Z,2.00
2022-10-25T12:14:10.645Z,1.95
2022-10-25T12:16:38.252Z,2.30
2022-10-25T12:19:40.366Z,2.03
2022-10-25T12:22:13.405Z,1.98
2022-10-25T12:24:46.321Z,1.92
2022-10-25T12:27:17.271Z,1.95
2022-10-25T12:29:49.517Z,2.20
2022-10-25T12:32:28.995Z,2.10
2022-10-25T12:34:59.976Z,2.17
2022-10-25T12:37:47.455Z,1.80
2022-10-25T12:40:17.996Z,2.10
2022-10-25T12:42:48.362Z,1.80
2022-10-25T12:45:42.298Z,2.13
2022-10-25T12:48:17.835Z,2.00
2022-10-25T12:51:00.918Z,2.00
2022-10-25T12:53:44.539Z,2.10
2022-10-25T12:56:43.005Z,2.00
2022-10-25T12:59:17.390Z,2.00
2022-10-25T13:01:43.897Z,2.80
2022-10-25T13:04:17.582Z,2.58
2022-10-25T13:06:46.490Z,2.20
2022-10-25T13:09:22.081Z,2.57
2022-10-25T13:11:59.555Z,2.55
2022-10-25T13:14:38.895Z,2.33
2022-10-25T13:17:20.459Z,2.30
2022-10-25T13:19:55.227Z,2.55
2022-10-25T13:22:39.844Z,2.57
2022-10-25T13:25:12.677Z,2.70
2022-10-25T13:28:00.405Z,2.33
2022-10-25T13:30:31.985Z,2.30
2022-10-25T13:33:23.865Z,2.85
2022-10-25T13:35:50.536Z,2.57
2022-10-25T13:38:39.113Z,2.40
2022-10-25T13:41:15.925Z,2.25
2022-10-25T13:43:59.455Z,1.85
2022-10-25T13:46:46.777Z,1.80
2022-10-25T13:49:40.225Z,2.20
2022-10-25T13:52:24.931Z,1.80
2022-10-25T13:54:56.334Z,2.00
2022-10-25T13:57:52.559Z,2.30
2022-10-25T14:00:34.941Z,2.15
2022-10-25T14:03:12.574Z,1.80
2022-10-25T14:05:57.026Z,1.90
2022-10-25T14:08:51.290Z,1.80
2022-10-25T14:11:26.622Z,1.80
2022-10-25T14:14:12.943Z,1.45
2022-10-25T14:16:55.811Z,1.83
2022-10-25T14:19:41.863Z,1.60
2022-10-25T14:22:38.401Z,1.70
2022-10-25T14:25:19.898Z,1.83
2022-10-25T14:27:46.648Z,1.60
2022-10-25T14:30:30.171Z,2.00
2022-10-25T14:32:58.916Z,1.50
2022-10-25T14:35:33.258Z,1.70
2022-10-25T14:38:01.078Z,1.75
2022-10-25T14:40:30.693Z,1.80
2022-10-25T14:43:35.377Z,1.60
2022-10-25T14:46:14.251Z,1.70
2022-10-25T14:48:46.888Z,2.17
2022-10-25T14:51:28.340Z,2.13
2022-10-25T14:54:08.309Z,2.17
2022-10-25T14:56:38.196Z,2.33
2022-10-25T14:59:07.894Z,2.60
2022-10-25T15:01:35.169Z,3.90
2022-10-25T15:04:02.001Z,5.50
2022-10-25T15:06:30.798Z,5.47
2022-10-25T15:09:23.046Z,2.80
2022-10-25T15:12:11.544Z,3.22
2022-10-25T15:14:38.309Z,2.97
2022-10-25T15:17:14.479Z,2.78
2022-10-25T15:20:05.501Z,2.60
2022-10-25T15:22:37.977Z,2.97
2022-10-25T15:25:22.670Z,2.80
2022-10-25T15:27:56.835Z,3.97
2022-10-25T15:30:44.932Z,4.15
2022-10-25T15:33:15.813Z,4.20
2022-10-25T15:35:48.278Z,2.80
2022-10-25T15:38:17.324Z,3.50
2022-10-25T15:40:45.393Z,3.45
2022-10-25T15:43:12.065Z,3.42
2022-10-25T15:45:38.870Z,3.33
2022-10-25T15:48:07.569Z,3.60
2022-10-25T15:50:34.203Z,3.60
2022-10-25T15:53:01.170Z,3.75
2022-10-25T15:55:28.144Z,4.30
2022-10-25T15:57:55.179Z,4.93
2022-10-25T16:00:27.085Z,5.60
2022-10-25T16:02:55.916Z,7.63
2022-10-25T16:05:24.545Z,8.30
2022-10-25T16:07:51.650Z,6.20
2022-10-25T16:10:20.415Z,6.03
2022-10-25T16:13:03.937Z,5.43
2022-10-25T16:15:31.079Z,5.45
2022-10-25T16:17:57.525Z,5.63
2022-10-25T16:20:27.523Z,6.22
2022-10-25T16:22:55.506Z,5.10
2022-10-25T16:25:23.662Z,4.80
2022-10-25T16:27:50.281Z,4.60
2022-10-25T16:30:21.564Z,4.43
2022-10-25T16:32:49.387Z,4.90
2022-10-25T16:35:18.748Z,6.07
2022-10-25T16:37:45.419Z,6.00
2022-10-25T16:40:15.842Z,7.18
2022-10-25T16:42:42.530Z,7.10
2022-10-25T16:45:31.014Z,6.55
2022-10-25T16:47:58.467Z,7.90
2022-10-25T16:50:27.534Z,8.23
2022-10-25T16:52:56.887Z,7.82
2022-10-25T16:55:24.696Z,8.43
2022-10-25T16:57:51.225Z,8.32
2022-10-25T17:00:18.027Z,9.07
2022-10-25T17:02:44.578Z,9.40
2022-10-25T17:05:23.389Z,9.85
2022-10-25T17:07:50.291Z,9.82
2022-10-25T17:10:18.842Z,8.88
2022-10-25T17:12:48.048Z,9.65
2022-10-25T17:15:15.799Z,11.40
2022-10-25T17:17:42.844Z,11.57
2022-10-25T17:20:10.948Z,12.45
2022-10-25T17:22:38.815Z,14.63
2022-10-25T17:25:06.746Z,14.77
2022-10-25T17:27:36.179Z,15.00
2022-10-25T17:30:02.751Z,14.70
2022-10-25T17:32:29.171Z,14.23
2022-10-25T17:34:55.660Z,13.80
2022-10-25T17:37:22.197Z,14.23
2022-10-25T17:39:48.804Z,14.33
2022-10-25T17:42:15.694Z,14.10
2022-10-25T17:44:44.547Z,14.55
2022-10-25T17:47:12.710Z,14.30
2022-10-25T17:49:39.753Z,14.98
2022-10-25T17:52:07.281Z,17.10
2022-10-25T17:54:34.220Z,16.98
2022-10-25T17:57:02.825Z,17.05
2022-10-25T17:59:30.233Z,15.48
2022-10-25T18:01:57.817Z,15.27
2022-10-25T18:04:24.823Z,13.67
2022-10-25T18:06:51.441Z,14.38
2022-10-25T18:09:18.013Z,15.02
2022-10-25T18:11:44.991Z,14.35
2022-10-25T18:14:11.517Z,13.05
2022-10-25T18:16:38.074Z,14.13
2022-10-25T18:19:06.032Z,12.55
2022-10-25T18:21:33.340Z,13.10
2022-10-25T18:24:02.407Z,10.85
2022-10-25T18:26:29.521Z,11.68
2022-10-25T18:28:57.099Z,11.67
2022-10-25T18:31:26.819Z,11.75
2022-10-25T18:33:58.890Z,10.73
2022-10-25T18:36:27.474Z,10.38
2022-10-25T18:38:54.645Z,10.00
2022-10-25T18:41:32.545Z,11.27
2022-10-25T18:43:59.488Z,12.65
2022-10-25T18:46:29.233Z,12.05
2022-10-25T18:48:55.736Z,11.43
2022-10-25T18:51:24.934Z,10.68
2022-10-25T18:54:01.940Z,9.80
2022-10-25T18:56:29.586Z,10.63
2022-10-25T18:58:59.670Z,11.30
2022-10-25T19:01:32.880Z,11.63
2022-10-25T19:04:01.207Z,10.20
2022-10-25T19:06:28.059Z,10.00
2022-10-25T19:08:54.703Z,9.82
2022-10-25T19:11:21.369Z,10.75
2022-10-25T19:13:50.530Z,9.70
2022-10-25T19:16:18.027Z,10.32
2022-10-25T19:18:44.537Z,9.23
2022-10-25T19:21:13.430Z,7.78
2022-10-25T19:23:42.626Z,7.25
2022-10-25T19:26:12.161Z,7.40
2022-10-25T19:28:38.778Z,7.32
2022-10-25T19:31:09.616Z,7.87
2022-10-25T19:33:36.136Z,8.75
2022-10-25T19:36:07.781Z,9.15
2022-10-25T19:38:38.039Z,8.65
2022-10-25T19:41:07.743Z,8.25
2022-10-25T19:43:34.856Z,8.03
2022-10-25T19:46:04.629Z,7.82
2022-10-25T19:48:31.842Z,8.93
2022-10-25T19:51:04.636Z,8.43
2022-10-25T19:53:31.174Z,7.72
2022-10-25T19:56:02.831Z,7.50
2022-10-25T19:58:29.821Z,7.55
2022-10-25T20:01:04.149Z,7.90
2022-10-25T20:03:31.183Z,8.85
2022-10-25T20:06:02.941Z,10.20
2022-10-25T20:08:35.251Z,10.00
2022-10-25T20:11:02.838Z,9.00
2022-10-25T20:13:30.611Z,9.30
2022-10-25T20:15:57.856Z,9.65
2022-10-25T20:18:29.923Z,9.55
2022-10-25T20:20:59.262Z,9.90
2022-10-25T20:23:25.833Z,10.13
2022-10-25T20:25:52.621Z,10.60
2022-10-25T20:28:19.190Z,10.48
2022-10-25T20:30:46.293Z,10.13
2022-10-25T20:33:12.935Z,11.57
2022-10-25T20:35:41.558Z,12.85
2022-10-25T20:38:11.751Z,11.77
2022-10-25T20:40:38.954Z,11.52
2022-10-25T20:43:06.407Z,10.93
2022-10-25T20:45:33.239Z,11.43
2022-10-25T20:48:00.049Z,11.10
2022-10-25T20:50:28.299Z,11.70
2022-10-25T20:53:10.882Z,11.48
2022-10-25T20:55:38.137Z,10.65
2022-10-25T20:58:05.100Z,11.53
2022-10-25T21:00:32.324Z,10.40
2022-10-25T21:02:59.733Z,10.05
2022-10-25T21:05:26.373Z,9.23
2022-10-25T21:07:53.141Z,9.23
2022-10-25T21:10:19.700Z,8.83
2022-10-25T21:12:46.273Z,8.73
2022-10-25T21:15:12.811Z,8.60
2022-10-25T21:17:39.474Z,8.70
2022-10-25T21:20:07.021Z,8.98
2022-10-25T21:22:33.697Z,8.30
2022-10-25T21:25:00.226Z,7.60
2022-10-25T21:27:26.795Z,7.47
2022-10-25T21:29:53.323Z,7.18
2022-10-25T21:32:20.186Z,7.75
2022-10-25T21:34:46.850Z,7.10
2022-10-25T21:37:14.441Z,7.63
2022-10-25T21:39:42.242Z,7.63
2022-10-25T21:42:09.938Z,7.38
2022-10-25T21:44:36.470Z,7.07
2022-10-25T21:47:03.042Z,9.03
2022-10-25T21:49:29.492Z,8.57
2022-10-25T21:51:56.039Z,7.70
2022-10-25T21:54:22.741Z,7.65
2022-10-25T21:56:52.423Z,7.10
2022-10-25T21:59:20.242Z,6.93
2022-10-25T22:01:47.588Z,7.07
2022-10-25T22:04:15.480Z,7.32
2022-10-25T22:06:42.049Z,7.38
2022-10-25T22:09:08.595Z,7.40
2022-10-25T22:11:37.576Z,7.43
2022-10-25T22:14:10.662Z,6.47
2022-10-25T22:16:37.325Z,7.53
2022-10-25T22:19:05.705Z,7.20
2022-10-25T22:21:37.291Z,6.93
2022-10-25T22:24:05.470Z,8.23
2022-10-25T22:26:32.214Z,8.05
2022-10-25T22:28:59.572Z,7.43
2022-10-25T22:31:28.094Z,7.75
2022-10-25T22:34:00.082Z,7.93
2022-10-25T22:36:29.477Z,7.40
2022-10-25T22:38:57.186Z,7.82
2022-10-25T22:41:26.068Z,7.57
2022-10-25T22:43:53.226Z,6.90
2022-10-25T22:46:24.055Z,6.50
2022-10-25T22:48:55.375Z,6.97
2022-10-25T22:51:23.516Z,7.03
2022-10-25T22:53:50.024Z,6.68
2022-10-25T22:56:19.096Z,6.82
2022-10-25T22:58:51.148Z,7.07
2022-10-25T23:01:20.091Z,6.63
2022-10-25T23:03:49.458Z,7.00
2022-10-25T23:06:18.994Z,7.47
2022-10-25T23:08:46.070Z,6.65
2022-10-25T23:11:18.160Z,6.82
2022-10-25T23:13:45.372Z,5.83
2022-10-25T23:16:14.057Z,6.60
2022-10-25T23:18:40.907Z,6.75
2022-10-25T23:21:09.930Z,6.97
2022-10-25T23:23:38.714Z,6.20
2022-10-25T23:28:34.240Z,6.00
2022-10-25T23:31:08.538Z,6.15
2022-10-25T23:33:35.373Z,6.22
2022-10-25T23:36:08.631Z,6.05
2022-10-25T23:38:36.140Z,6.50
2022-10-25T23:41:03.486Z,6.05
2022-10-25T23:43:30.542Z,6.40
2022-10-25T23:45:57.609Z,6.82
2022-10-25T23:48:24.155Z,6.57
2022-10-25T23:53:34.190Z,5.85
2022-10-25T23:56:01.766Z,6.20
2022-10-25T23:58:28.583Z,6.57
